sensor_id;sensor_type;location;lat;lon;timestamp;temperature;humidity
14283;DHT22;7225;59.282;18.344;2022-11-21T07:40:16;2.30;99.90
14283;DHT22;7225;59.282;18.344;2022-11-21T07:42:46;2.20;99.90
14283;DHT22;7225;59.282;18.344;2022-11-21T07:45:15;2.30;99.90
14283;DHT22;7225;59.282;18.344;2022-11-21T07:47:44;2.20;99.90
14283;DHT22;7225;59.282;18.344;2022-11-21T07:50:16;2.20;99.90
14283;DHT22;7225;59.282;18.344;2022-11-21T07:52:46;2.20;99.90
14283;DHT22;7225;59.282;18.344;2022-11-21T07:55:28;2.20;99.90
14283;DHT22;7225;59.282;18.344;2022-11-21T07:58:06;2.20;99.90
14283;DHT22;7225;59.282;18.344;2022-11-21T08:00:39;2.20;99.90
14283;DHT22;7225;59.282;18.344;2022-11-21T08:03:11;2.20;99.90
14283;DHT22;7225;59.282;18.344;2022-11-21T08:05:41;2.20;99.90
14283;DHT22;7225;59.282;18.344;2022-11-21T08:08:11;2.20;99.90
14283;DHT22;7225;59.282;18.344;2022-11-21T08:10:44;2.20;99.90
14283;DHT22;7225;59.282;18.344;2022-11-21T08:13:12;2.20;99.90
14283;DHT22;7225;59.282;18.344;2022-11-21T08:15:40;2.20;99.90
14283;DHT22;7225;59.282;18.344;2022-11-21T08:18:16;2.20;99.90
14283;DHT22;7225;59.282;18.344;2022-11-21T08:20:46;2.20;99.90
14283;DHT22;7225;59.282;18.344;2022-11-21T08:23:14;2.20;99.90
14283;DHT22;7225;59.282;18.344;2022-11-21T08:25:43;2.30;99.90
14283;DHT22;7225;59.282;18.344;2022-11-21T08:28:19;2.30;99.90
14283;DHT22;7225;59.282;18.344;2022-11-21T08:31:19;2.30;99.90
14283;DHT22;7225;59.282;18.344;2022-11-21T08:34:01;2.30;99.90
14283;DHT22;7225;59.282;18.344;2022-11-21T08:36:43;2.30;99.90
14283;DHT22;7225;59.282;18.344;2022-11-21T08:39:27;2.30;99.90
14283;DHT22;7225;59.282;18.344;2022-11-21T08:42:47;2.30;99.90
14283;DHT22;7225;59.282;18.344;2022-11-21T08:55:18;2.20;99.90
14283;DHT22;7225;59.282;18.344;2022-11-21T08:59:09;2.20;99.90
14283;DHT22;7225;59.282;18.344;2022-11-21T09:05:33;2.20;99.90
14283;DHT22;7225;59.282;18.344;2022-11-21T09:08:07;2.20;99.90
14283;DHT22;7225;59.282;18.344;2022-11-21T09:10:37;2.20;99.90
14283;DHT22;7225;59.282;18.344;2022-11-21T09:13:30;2.30;99.90
14283;DHT22;7225;59.282;18.344;2022-11-21T09:17:29;2.30;99.90
14283;DHT22;7225;59.282;18.344;2022-11-21T09:41:10;2.30;99.90
14283;DHT22;7225;59.282;18.344;2022-11-21T09:47:52;2.50;99.90
14283;DHT22;7225;59.282;18.344;2022-11-21T09:50:46;2.50;99.90
14283;DHT22;7225;59.282;18.344;2022-11-21T09:53:50;2.40;99.90
14283;DHT22;7225;59.282;18.344;2022-11-21T09:56:22;2.40;99.90
14283;DHT22;7225;59.282;18.344;2022-11-21T09:59:33;2.40;99.90
14283;DHT22;7225;59.282;18.344;2022-11-21T10:07:05;2.40;99.90
14283;DHT22;7225;59.282;18.344;2022-11-21T10:13:38;2.40;99.90
14283;DHT22;7225;59.282;18.344;2022-11-21T10:25:02;2.20;99.90
14283;DHT22;7225;59.282;18.344;2022-11-21T10:28:21;2.20;99.90
14283;DHT22;7225;59.282;18.344;2022-11-21T10:30:57;2.20;99.90
14283;DHT22;7225;59.282;18.344;2022-11-21T10:33:30;2.20;99.90
14283;DHT22;7225;59.282;18.344;2022-11-21T10:36:04;2.20;99.90
14283;DHT22;7225;59.282;18.344;2022-11-21T10:38:37;2.10;99.90
14283;DHT22;7225;59.282;18.344;2022-11-21T10:41:36;2.20;99.90
14283;DHT22;7225;59.282;18.344;2022-11-21T10:44:16;2.20;99.90
14283;DHT22;7225;59.282;18.344;2022-11-21T10:47:30;2.20;99.90
14283;DHT22;7225;59.282;18.344;2022-11-21T10:56:15;2.20;99.90
14283;DHT22;7225;59.282;18.344;2022-11-21T10:58:50;2.20;99.90
14283;DHT22;7225;59.282;18.344;2022-11-21T11:07:34;2.30;99.90
14283;DHT22;7225;59.282;18.344;2022-11-21T11:11:13;2.30;99.90
14283;DHT22;7225;59.282;18.344;2022-11-21T11:13:59;2.30;99.90
14283;DHT22;7225;59.282;18.344;2022-11-21T11:16:31;2.30;99.90
14283;DHT22;7225;59.282;18.344;2022-11-21T11:21:43;2.20;99.90
14283;DHT22;7225;59.282;18.344;2022-11-21T11:30:06;2.30;99.90
14283;DHT22;7225;59.282;18.344;2022-11-21T11:32:55;2.30;99.90
14283;DHT22;7225;59.282;18.344;2022-11-21T11:43:23;2.30;99.90
14283;DHT22;7225;59.282;18.344;2022-11-21T11:46:43;2.30;99.90
14283;DHT22;7225;59.282;18.344;2022-11-21T11:49:49;2.30;99.90
14283;DHT22;7225;59.282;18.344;2022-11-21T11:56:17;2.30;99.90
14283;DHT22;7225;59.282;18.344;2022-11-21T11:59:48;2.30;99.90
14283;DHT22;7225;59.282;18.344;2022-11-21T12:02:39;2.30;99.90
14283;DHT22;7225;59.282;18.344;2022-11-21T12:05:29;2.40;99.90
14283;DHT22;7225;59.282;18.344;2022-11-21T12:08:54;2.30;99.90
14283;DHT22;7225;59.282;18.344;2022-11-21T12:11:44;2.30;99.90
14283;DHT22;7225;59.282;18.344;2022-11-21T12:15:02;2.40;99.90
14283;DHT22;7225;59.282;18.344;2022-11-21T12:41:48;2.40;99.90
14283;DHT22;7225;59.282;18.344;2022-11-21T12:45:54;2.40;99.90
14283;DHT22;7225;59.282;18.344;2022-11-21T12:49:29;2.40;99.90
14283;DHT22;7225;59.282;18.344;2022-11-21T12:57:34;2.40;99.90
14283;DHT22;7225;59.282;18.344;2022-11-21T13:00:31;2.40;99.90
14283;DHT22;7225;59.282;18.344;2022-11-21T13:06:04;2.40;99.90
14283;DHT22;7225;59.282;18.344;2022-11-21T13:08:38;2.40;99.90
14283;DHT22;7225;59.282;18.344;2022-11-21T13:11:20;2.50;99.90
14283;DHT22;7225;59.282;18.344;2022-11-21T13:22:52;2.60;99.90
14283;DHT22;7225;59.282;18.344;2022-11-21T13:25:37;2.60;99.90
14283;DHT22;7225;59.282;18.344;2022-11-21T13:30:53;2.60;99.90
14283;DHT22;7225;59.282;18.344;2022-11-21T13:44:45;3.00;99.90
14283;DHT22;7225;59.282;18.344;2022-11-21T13:47:43;3.00;99.90
14283;DHT22;7225;59.282;18.344;2022-11-21T13:56:24;2.90;99.90
14283;DHT22;7225;59.282;18.344;2022-11-21T13:59:28;2.80;99.90
14283;DHT22;7225;59.282;18.344;2022-11-21T14:05:04;2.70;99.90
14283;DHT22;7225;59.282;18.344;2022-11-21T14:07:44;2.70;99.90
14283;DHT22;7225;59.282;18.344;2022-11-21T14:10:32;2.70;99.90
14283;DHT22;7225;59.282;18.344;2022-11-21T14:13:03;2.70;99.90
14283;DHT22;7225;59.282;18.344;2022-11-21T14:18:32;2.60;99.90
14283;DHT22;7225;59.282;18.344;2022-11-21T14:21:04;2.60;99.90
14283;DHT22;7225;59.282;18.344;2022-11-21T14:23:42;2.60;99.90
14283;DHT22;7225;59.282;18.344;2022-11-21T14:26:19;2.60;99.90
14283;DHT22;7225;59.282;18.344;2022-11-21T14:29:16;2.50;99.90
14283;DHT22;7225;59.282;18.344;2022-11-21T14:31:49;2.50;99.90
14283;DHT22;7225;59.282;18.344;2022-11-21T14:34:28;2.50;99.90
14283;DHT22;7225;59.282;18.344;2022-11-21T14:37:06;2.50;99.90
14283;DHT22;7225;59.282;18.344;2022-11-21T14:39:39;2.50;99.90
14283;DHT22;7225;59.282;18.344;2022-11-21T14:42:16;2.50;99.90
14283;DHT22;7225;59.282;18.344;2022-11-21T14:44:46;2.40;99.90
14283;DHT22;7225;59.282;18.344;2022-11-21T14:47:45;2.40;99.90
14283;DHT22;7225;59.282;18.344;2022-11-21T14:50:29;2.30;99.90
14283;DHT22;7225;59.282;18.344;2022-11-21T14:53:01;2.30;99.90
14283;DHT22;7225;59.282;18.344;2022-11-21T14:55:32;2.30;99.90
14283;DHT22;7225;59.282;18.344;2022-11-21T14:58:01;2.20;99.90
14283;DHT22;7225;59.282;18.344;2022-11-21T15:00:31;2.10;99.90
14283;DHT22;7225;59.282;18.344;2022-11-21T15:03:21;2.10;99.90
14283;DHT22;7225;59.282;18.344;2022-11-21T15:06:02;2.10;99.90
14283;DHT22;7225;59.282;18.344;2022-11-21T15:08:36;2.00;99.90
14283;DHT22;7225;59.282;18.344;2022-11-21T15:12:15;2.00;99.90
14283;DHT22;7225;59.282;18.344;2022-11-21T15:14:42;1.90;99.90
14283;DHT22;7225;59.282;18.344;2022-11-21T15:17:17;2.00;99.90
14283;DHT22;7225;59.282;18.344;2022-11-21T15:20:03;2.00;99.90
14283;DHT22;7225;59.282;18.344;2022-11-21T15:22:39;2.00;99.90
14283;DHT22;7225;59.282;18.344;2022-11-21T15:25:19;2.00;99.90
14283;DHT22;7225;59.282;18.344;2022-11-21T15:30:30;2.00;99.90
14283;DHT22;7225;59.282;18.344;2022-11-21T15:36:10;2.00;99.90
14283;DHT22;7225;59.282;18.344;2022-11-21T15:38:50;2.00;99.90
14283;DHT22;7225;59.282;18.344;2022-11-21T15:41:26;2.00;99.90
14283;DHT22;7225;59.282;18.344;2022-11-21T15:46:30;2.10;99.90
14283;DHT22;7225;59.282;18.344;2022-11-21T15:49:04;2.10;99.90
14283;DHT22;7225;59.282;18.344;2022-11-21T15:51:53;2.10;99.90
14283;DHT22;7225;59.282;18.344;2022-11-21T15:54:38;2.20;99.90
14283;DHT22;7225;59.282;18.344;2022-11-21T15:57:09;2.20;99.90
14283;DHT22;7225;59.282;18.344;2022-11-21T15:59:37;2.20;99.90
14283;DHT22;7225;59.282;18.344;2022-11-21T16:02:11;2.20;99.90
14283;DHT22;7225;59.282;18.344;2022-11-21T16:04:40;2.30;99.90
14283;DHT22;7225;59.282;18.344;2022-11-21T16:07:10;2.30;99.90
14283;DHT22;7225;59.282;18.344;2022-11-21T16:09:39;2.30;99.90
14283;DHT22;7225;59.282;18.344;2022-11-21T16:12:09;2.30;99.90
14283;DHT22;7225;59.282;18.344;2022-11-21T16:14:37;2.30;99.90
14283;DHT22;7225;59.282;18.344;2022-11-21T16:17:06;2.30;99.90
14283;DHT22;7225;59.282;18.344;2022-11-21T16:19:37;2.30;99.90
14283;DHT22;7225;59.282;18.344;2022-11-21T16:22:06;2.40;99.90
14283;DHT22;7225;59.282;18.344;2022-11-21T16:24:36;2.40;99.90
14283;DHT22;7225;59.282;18.344;2022-11-21T16:27:03;2.40;99.90
14283;DHT22;7225;59.282;18.344;2022-11-21T16:29:32;2.50;99.90
14283;DHT22;7225;59.282;18.344;2022-11-21T16:32:01;2.40;99.90
14283;DHT22;7225;59.282;18.344;2022-11-21T16:34:29;2.50;99.90
14283;DHT22;7225;59.282;18.344;2022-11-21T16:36:59;2.40;99.90
14283;DHT22;7225;59.282;18.344;2022-11-21T16:39:33;2.40;99.90
14283;DHT22;7225;59.282;18.344;2022-11-21T16:42:02;2.40;99.90
14283;DHT22;7225;59.282;18.344;2022-11-21T16:44:31;2.40;99.90
14283;DHT22;7225;59.282;18.344;2022-11-21T16:46:59;2.50;99.90
14283;DHT22;7225;59.282;18.344;2022-11-21T16:49:35;2.40;99.90
14283;DHT22;7225;59.282;18.344;2022-11-21T16:52:09;2.40;99.90
14283;DHT22;7225;59.282;18.344;2022-11-21T16:54:37;2.40;99.90
14283;DHT22;7225;59.282;18.344;2022-11-21T16:57:07;2.40;99.90
14283;DHT22;7225;59.282;18.344;2022-11-21T16:59:35;2.30;99.90
14283;DHT22;7225;59.282;18.344;2022-11-21T17:02:05;2.30;99.90
14283;DHT22;7225;59.282;18.344;2022-11-21T17:04:35;2.30;99.90
14283;DHT22;7225;59.282;18.344;2022-11-21T17:07:03;2.20;99.90
14283;DHT22;7225;59.282;18.344;2022-11-21T17:09:34;2.20;99.90
14283;DHT22;7225;59.282;18.344;2022-11-21T17:12:03;2.20;99.90
14283;DHT22;7225;59.282;18.344;2022-11-21T17:14:30;2.20;99.90
14283;DHT22;7225;59.282;18.344;2022-11-21T17:16:59;2.20;99.90
14283;DHT22;7225;59.282;18.344;2022-11-21T17:19:29;2.20;99.90
14283;DHT22;7225;59.282;18.344;2022-11-21T17:21:59;2.30;99.90
14283;DHT22;7225;59.282;18.344;2022-11-21T17:24:30;2.30;99.90
14283;DHT22;7225;59.282;18.344;2022-11-21T17:27:00;2.40;99.90
14283;DHT22;7225;59.282;18.344;2022-11-21T17:29:35;2.50;99.90
14283;DHT22;7225;59.282;18.344;2022-11-21T17:32:05;2.40;99.90
14283;DHT22;7225;59.282;18.344;2022-11-21T17:34:35;2.50;99.90
14283;DHT22;7225;59.282;18.344;2022-11-21T17:37:08;2.50;99.90
14283;DHT22;7225;59.282;18.344;2022-11-21T17:39:38;2.60;99.90
14283;DHT22;7225;59.282;18.344;2022-11-21T17:42:16;2.50;99.90
14283;DHT22;7225;59.282;18.344;2022-11-21T17:44:47;2.60;99.90
14283;DHT22;7225;59.282;18.344;2022-11-21T17:47:17;2.70;99.90
14283;DHT22;7225;59.282;18.344;2022-11-21T17:49:46;2.70;99.90
14283;DHT22;7225;59.282;18.344;2022-11-21T17:52:16;2.70;99.90
14283;DHT22;7225;59.282;18.344;2022-11-21T17:54:45;2.70;99.90
14283;DHT22;7225;59.282;18.344;2022-11-21T17:57:15;2.70;99.90
14283;DHT22;7225;59.282;18.344;2022-11-21T17:59:43;2.60;99.90
14283;DHT22;7225;59.282;18.344;2022-11-21T19:25:19;2.50;99.90
14283;DHT22;7225;59.282;18.344;2022-11-21T19:28:43;2.50;99.90
14283;DHT22;7225;59.282;18.344;2022-11-21T19:31:38;2.50;99.90
14283;DHT22;7225;59.282;18.344;2022-11-21T19:34:34;2.60;99.90
14283;DHT22;7225;59.282;18.344;2022-11-21T19:37:53;2.60;99.90
14283;DHT22;7225;59.282;18.344;2022-11-21T19:40:45;2.60;99.90
14283;DHT22;7225;59.282;18.344;2022-11-21T19:43:58;2.60;99.90
14283;DHT22;7225;59.282;18.344;2022-11-21T19:46:49;2.60;99.90
14283;DHT22;7225;59.282;18.344;2022-11-21T19:49:20;2.60;99.90
14283;DHT22;7225;59.282;18.344;2022-11-21T19:52:36;2.60;99.90
14283;DHT22;7225;59.282;18.344;2022-11-21T19:55:31;2.60;99.90
14283;DHT22;7225;59.282;18.344;2022-11-21T19:58:22;2.70;99.90
14283;DHT22;7225;59.282;18.344;2022-11-21T20:00:51;2.70;99.90
14283;DHT22;7225;59.282;18.344;2022-11-21T20:03:20;2.70;99.90
14283;DHT22;7225;59.282;18.344;2022-11-21T20:05:49;2.70;99.90
14283;DHT22;7225;59.282;18.344;2022-11-21T20:08:18;2.70;99.90
14283;DHT22;7225;59.282;18.344;2022-11-21T20:10:46;2.70;99.90
14283;DHT22;7225;59.282;18.344;2022-11-21T20:13:14;2.70;99.90
14283;DHT22;7225;59.282;18.344;2022-11-21T20:15:42;2.70;99.90
14283;DHT22;7225;59.282;18.344;2022-11-21T20:18:10;2.80;99.90
14283;DHT22;7225;59.282;18.344;2022-11-21T20:20:40;2.70;99.90
14283;DHT22;7225;59.282;18.344;2022-11-21T20:23:09;2.80;99.90
14283;DHT22;7225;59.282;18.344;2022-11-21T20:25:41;2.80;99.90
14283;DHT22;7225;59.282;18.344;2022-11-21T20:28:13;2.80;99.90
14283;DHT22;7225;59.282;18.344;2022-11-21T20:31:36;2.80;99.90
14283;DHT22;7225;59.282;18.344;2022-11-21T20:34:49;2.80;99.90
14283;DHT22;7225;59.282;18.344;2022-11-21T20:37:55;2.80;99.90
14283;DHT22;7225;59.282;18.344;2022-11-21T20:40:33;2.80;99.90
14283;DHT22;7225;59.282;18.344;2022-11-21T20:43:30;2.80;99.90
14283;DHT22;7225;59.282;18.344;2022-11-21T20:46:20;2.80;99.90
14283;DHT22;7225;59.282;18.344;2022-11-21T20:51:51;2.80;99.90
14283;DHT22;7225;59.282;18.344;2022-11-21T20:54:40;2.80;99.90
14283;DHT22;7225;59.282;18.344;2022-11-21T20:57:09;2.80;99.90
14283;DHT22;7225;59.282;18.344;2022-11-21T20:59:42;2.80;99.90
14283;DHT22;7225;59.282;18.344;2022-11-21T21:02:10;2.80;99.90
14283;DHT22;7225;59.282;18.344;2022-11-21T21:04:38;2.80;99.90
14283;DHT22;7225;59.282;18.344;2022-11-21T21:07:06;2.80;99.90
14283;DHT22;7225;59.282;18.344;2022-11-21T21:09:33;2.80;99.90
14283;DHT22;7225;59.282;18.344;2022-11-21T21:12:00;2.80;99.90
14283;DHT22;7225;59.282;18.344;2022-11-21T21:14:28;2.80;99.90
14283;DHT22;7225;59.282;18.344;2022-11-21T21:16:55;2.90;99.90
14283;DHT22;7225;59.282;18.344;2022-11-21T21:19:25;2.80;99.90
14283;DHT22;7225;59.282;18.344;2022-11-21T21:21:54;2.90;99.90
14283;DHT22;7225;59.282;18.344;2022-11-21T21:24:22;2.90;99.90
14283;DHT22;7225;59.282;18.344;2022-11-21T21:26:50;2.80;99.90
14283;DHT22;7225;59.282;18.344;2022-11-21T21:29:20;2.90;99.90
14283;DHT22;7225;59.282;18.344;2022-11-21T21:31:48;2.90;99.90
14283;DHT22;7225;59.282;18.344;2022-11-21T22:01:49;2.70;99.90
14283;DHT22;7225;59.282;18.344;2022-11-21T22:04:19;2.80;99.90
14283;DHT22;7225;59.282;18.344;2022-11-21T22:06:51;2.70;99.90
14283;DHT22;7225;59.282;18.344;2022-11-21T22:09:20;2.70;99.90
14283;DHT22;7225;59.282;18.344;2022-11-21T22:11:50;2.70;99.90
14283;DHT22;7225;59.282;18.344;2022-11-21T22:14:20;2.70;99.90
14283;DHT22;7225;59.282;18.344;2022-11-21T22:16:56;2.70;99.90
14283;DHT22;7225;59.282;18.344;2022-11-21T22:19:50;2.70;99.90
14283;DHT22;7225;59.282;18.344;2022-11-21T22:22:45;2.70;99.90
14283;DHT22;7225;59.282;18.344;2022-11-21T22:25:42;2.70;99.90
14283;DHT22;7225;59.282;18.344;2022-11-21T22:28:23;2.70;99.90
14283;DHT22;7225;59.282;18.344;2022-11-21T22:31:14;2.70;99.90
14283;DHT22;7225;59.282;18.344;2022-11-21T22:33:47;2.80;99.90
14283;DHT22;7225;59.282;18.344;2022-11-21T22:36:28;2.80;99.90
14283;DHT22;7225;59.282;18.344;2022-11-21T22:39:27;2.80;99.90
14283;DHT22;7225;59.282;18.344;2022-11-21T22:42:26;2.80;99.90
14283;DHT22;7225;59.282;18.344;2022-11-21T22:45:20;2.70;99.90
14283;DHT22;7225;59.282;18.344;2022-11-21T22:48:08;2.70;99.90
14283;DHT22;7225;59.282;18.344;2022-11-21T22:51:01;2.80;99.90
14283;DHT22;7225;59.282;18.344;2022-11-21T22:53:57;2.80;99.90
14283;DHT22;7225;59.282;18.344;2022-11-21T22:56:55;2.80;99.90
14283;DHT22;7225;59.282;18.344;2022-11-21T22:59:43;2.70;99.90
14283;DHT22;7225;59.282;18.344;2022-11-21T23:02:36;2.70;99.90
14283;DHT22;7225;59.282;18.344;2022-11-21T23:05:32;2.70;99.90
14283;DHT22;7225;59.282;18.344;2022-11-21T23:08:19;2.80;99.90
14283;DHT22;7225;59.282;18.344;2022-11-21T23:11:22;2.80;99.90
14283;DHT22;7225;59.282;18.344;2022-11-21T23:14:19;2.70;99.90
14283;DHT22;7225;59.282;18.344;2022-11-21T23:17:11;2.80;99.90
14283;DHT22;7225;59.282;18.344;2022-11-21T23:19:42;2.80;99.90
14283;DHT22;7225;59.282;18.344;2022-11-21T23:22:10;2.70;99.90
14283;DHT22;7225;59.282;18.344;2022-11-21T23:24:39;2.80;99.90
14283;DHT22;7225;59.282;18.344;2022-11-21T23:27:10;2.70;99.90
14283;DHT22;7225;59.282;18.344;2022-11-21T23:29:38;2.70;99.90
14283;DHT22;7225;59.282;18.344;2022-11-21T23:32:07;2.70;99.90
14283;DHT22;7225;59.282;18.344;2022-11-21T23:34:35;2.70;99.90
14283;DHT22;7225;59.282;18.344;2022-11-21T23:37:02;2.70;99.90
14283;DHT22;7225;59.282;18.344;2022-11-21T23:39:30;2.70;99.90
14283;DHT22;7225;59.282;18.344;2022-11-21T23:41:58;2.60;99.90
14283;DHT22;7225;59.282;18.344;2022-11-21T23:44:29;2.70;99.90
14283;DHT22;7225;59.282;18.344;2022-11-21T23:47:00;2.70;99.90
14283;DHT22;7225;59.282;18.344;2022-11-21T23:49:27;2.70;99.90
14283;DHT22;7225;59.282;18.344;2022-11-21T23:51:54;2.70;99.90
14283;DHT22;7225;59.282;18.344;2022-11-21T23:54:22;2.70;99.90
14283;DHT22;7225;59.282;18.344;2022-11-21T23:56:49;2.70;99.90
14283;DHT22;7225;59.282;18.344;2022-11-21T23:59:16;2.70;99.90
